sensor_id;sensor_type;location;lat;lon;timestamp;P1;durP1;ratioP1;P2;durP2;ratioP2
17504;SDS011;8870;50.950;11.762;2023-03-01T00:00:53;11.13;;;9.93;;
17504;SDS011;8870;50.950;11.762;2023-03-01T00:06:24;12.68;;;11.13;;
17504;SDS011;8870;50.950;11.762;2023-03-01T00:11:43;13.40;;;11.25;;
17504;SDS011;8870;50.950;11.762;2023-03-01T00:17:17;12.05;;;10.82;;
17504;SDS011;8870;50.950;11.762;2023-03-01T00:22:36;13.48;;;11.20;;
17504;SDS011;8870;50.950;11.762;2023-03-01T00:28:07;12.63;;;11.32;;
17504;SDS011;8870;50.950;11.762;2023-03-01T00:33:27;13.70;;;12.30;;
17504;SDS011;8870;50.950;11.762;2023-03-01T00:38:59;13.25;;;11.75;;
17504;SDS011;8870;50.950;11.762;2023-03-01T00:44:19;13.25;;;11.93;;
17504;SDS011;8870;50.950;11.762;2023-03-01T00:49:52;13.88;;;12.45;;
17504;SDS011;8870;50.950;11.762;2023-03-01T00:55:11;13.15;;;11.57;;
17504;SDS011;8870;50.950;11.762;2023-03-01T01:00:43;13.07;;;11.77;;
17504;SDS011;8870;50.950;11.762;2023-03-01T01:06:04;14.85;;;12.43;;
17504;SDS011;8870;50.950;11.762;2023-03-01T01:11:35;14.88;;;13.25;;
17504;SDS011;8870;50.950;11.762;2023-03-01T01:16:53;14.25;;;12.75;;
17504;SDS011;8870;50.950;11.762;2023-03-01T01:22:26;16.38;;;13.15;;
17504;SDS011;8870;50.950;11.762;2023-03-01T01:27:45;15.05;;;12.50;;
17504;SDS011;8870;50.950;11.762;2023-03-01T01:33:16;14.73;;;12.48;;
17504;SDS011;8870;50.950;11.762;2023-03-01T01:38:37;16.38;;;13.23;;
17504;SDS011;8870;50.950;11.762;2023-03-01T01:44:16;15.05;;;13.30;;
17504;SDS011;8870;50.950;11.762;2023-03-01T01:49:43;15.32;;;12.73;;
17504;SDS011;8870;50.950;11.762;2023-03-01T01:55:21;14.15;;;12.63;;
17504;SDS011;8870;50.950;11.762;2023-03-01T02:00:42;15.27;;;13.40;;
17504;SDS011;8870;50.950;11.762;2023-03-01T02:06:16;17.15;;;14.05;;
17504;SDS011;8870;50.950;11.762;2023-03-01T02:11:46;17.25;;;14.35;;
17504;SDS011;8870;50.950;11.762;2023-03-01T02:17:19;15.68;;;13.63;;
17504;SDS011;8870;50.950;11.762;2023-03-01T02:22:39;17.52;;;14.32;;
17504;SDS011;8870;50.950;11.762;2023-03-01T02:28:25;15.05;;;13.45;;
17504;SDS011;8870;50.950;11.762;2023-03-01T02:33:47;15.93;;;14.23;;
17504;SDS011;8870;50.950;11.762;2023-03-01T02:39:18;15.85;;;14.15;;
17504;SDS011;8870;50.950;11.762;2023-03-01T02:44:44;16.63;;;14.65;;
17504;SDS011;8870;50.950;11.762;2023-03-01T02:50:18;17.92;;;14.52;;
17504;SDS011;8870;50.950;11.762;2023-03-01T02:56:05;17.35;;;13.93;;
17504;SDS011;8870;50.950;11.762;2023-03-01T03:01:39;16.52;;;14.63;;
17504;SDS011;8870;50.950;11.762;2023-03-01T03:06:58;17.70;;;14.55;;
17504;SDS011;8870;50.950;11.762;2023-03-01T03:12:30;16.30;;;14.18;;
17504;SDS011;8870;50.950;11.762;2023-03-01T03:17:51;16.10;;;14.25;;
17504;SDS011;8870;50.950;11.762;2023-03-01T03:23:23;16.75;;;14.30;;
17504;SDS011;8870;50.950;11.762;2023-03-01T03:28:41;17.73;;;14.75;;
17504;SDS011;8870;50.950;11.762;2023-03-01T03:34:14;16.02;;;14.32;;
17504;SDS011;8870;50.950;11.762;2023-03-01T03:39:33;16.35;;;14.40;;
17504;SDS011;8870;50.950;11.762;2023-03-01T03:45:04;17.40;;;14.23;;
17504;SDS011;8870;50.950;11.762;2023-03-01T03:50:32;17.90;;;14.55;;
17504;SDS011;8870;50.950;11.762;2023-03-01T03:56:04;18.52;;;14.68;;
17504;SDS011;8870;50.950;11.762;2023-03-01T04:01:23;19.38;;;14.80;;
17504;SDS011;8870;50.950;11.762;2023-03-01T04:06:56;18.08;;;14.98;;
17504;SDS011;8870;50.950;11.762;2023-03-01T04:12:15;16.35;;;14.57;;
17504;SDS011;8870;50.950;11.762;2023-03-01T04:17:46;17.27;;;14.55;;
17504;SDS011;8870;50.950;11.762;2023-03-01T04:23:07;16.88;;;15.05;;
17504;SDS011;8870;50.950;11.762;2023-03-01T04:28:42;17.48;;;14.93;;
17504;SDS011;8870;50.950;11.762;2023-03-01T04:34:02;16.85;;;14.70;;
17504;SDS011;8870;50.950;11.762;2023-03-01T04:39:37;17.42;;;14.73;;
17504;SDS011;8870;50.950;11.762;2023-03-01T04:45:00;19.30;;;15.63;;
17504;SDS011;8870;50.950;11.762;2023-03-01T04:50:34;18.05;;;16.10;;
17504;SDS011;8870;50.950;11.762;2023-03-01T04:56:08;17.67;;;15.70;;
17504;SDS011;8870;50.950;11.762;2023-03-01T05:01:28;18.73;;;16.17;;
17504;SDS011;8870;50.950;11.762;2023-03-01T05:06:59;18.48;;;16.48;;
17504;SDS011;8870;50.950;11.762;2023-03-01T05:12:20;18.95;;;15.45;;
17504;SDS011;8870;50.950;11.762;2023-03-01T05:17:51;18.63;;;16.15;;
17504;SDS011;8870;50.950;11.762;2023-03-01T05:23:10;19.98;;;15.13;;
17504;SDS011;8870;50.950;11.762;2023-03-01T05:28:44;20.48;;;17.27;;
17504;SDS011;8870;50.950;11.762;2023-03-01T05:34:03;20.17;;;17.60;;
17504;SDS011;8870;50.950;11.762;2023-03-01T05:39:35;19.80;;;16.92;;
17504;SDS011;8870;50.950;11.762;2023-03-01T05:45:00;20.63;;;17.17;;
17504;SDS011;8870;50.950;11.762;2023-03-01T05:50:33;19.45;;;16.13;;
17504;SDS011;8870;50.950;11.762;2023-03-01T05:56:07;18.88;;;16.42;;
17504;SDS011;8870;50.950;11.762;2023-03-01T06:01:28;18.42;;;16.17;;
17504;SDS011;8870;50.950;11.762;2023-03-01T06:07:00;18.77;;;16.30;;
17504;SDS011;8870;50.950;11.762;2023-03-01T06:12:18;20.65;;;17.30;;
17504;SDS011;8870;50.950;11.762;2023-03-01T06:17:53;18.88;;;16.88;;
17504;SDS011;8870;50.950;11.762;2023-03-01T06:23:12;20.80;;;16.63;;
17504;SDS011;8870;50.950;11.762;2023-03-01T06:28:44;22.05;;;17.70;;
17504;SDS011;8870;50.950;11.762;2023-03-01T06:34:06;19.17;;;16.70;;
17504;SDS011;8870;50.950;11.762;2023-03-01T06:39:37;21.40;;;18.48;;
17504;SDS011;8870;50.950;11.762;2023-03-01T06:44:55;20.13;;;17.50;;
17504;SDS011;8870;50.950;11.762;2023-03-01T06:50:30;19.98;;;17.88;;
17504;SDS011;8870;50.950;11.762;2023-03-01T06:55:53;21.77;;;18.77;;
17504;SDS011;8870;50.950;11.762;2023-03-01T07:01:26;23.52;;;19.50;;
17504;SDS011;8870;50.950;11.762;2023-03-01T07:06:47;22.23;;;18.92;;
17504;SDS011;8870;50.950;11.762;2023-03-01T07:12:19;23.85;;;20.23;;
17504;SDS011;8870;50.950;11.762;2023-03-01T07:17:38;22.13;;;19.48;;
17504;SDS011;8870;50.950;11.762;2023-03-01T07:23:15;33.85;;;24.42;;
17504;SDS011;8870;50.950;11.762;2023-03-01T07:28:33;23.20;;;20.70;;
17504;SDS011;8870;50.950;11.762;2023-03-01T07:34:05;30.77;;;25.52;;
17504;SDS011;8870;50.950;11.762;2023-03-01T07:39:28;23.00;;;20.60;;
17504;SDS011;8870;50.950;11.762;2023-03-01T07:45:00;22.77;;;20.30;;
17504;SDS011;8870;50.950;11.762;2023-03-01T07:50:18;22.23;;;19.83;;
17504;SDS011;8870;50.950;11.762;2023-03-01T07:55:53;22.17;;;18.27;;
17504;SDS011;8870;50.950;11.762;2023-03-01T08:01:31;19.15;;;16.92;;
17504;SDS011;8870;50.950;11.762;2023-03-01T08:06:49;18.95;;;16.00;;
17504;SDS011;8870;50.950;11.762;2023-03-01T08:12:23;17.33;;;14.75;;
17504;SDS011;8870;50.950;11.762;2023-03-01T08:17:42;17.10;;;14.50;;
17504;SDS011;8870;50.950;11.762;2023-03-01T08:23:14;17.30;;;13.95;;
17504;SDS011;8870;50.950;11.762;2023-03-01T08:28:35;18.13;;;14.10;;
17504;SDS011;8870;50.950;11.762;2023-03-01T08:34:07;13.77;;;12.30;;
17504;SDS011;8870;50.950;11.762;2023-03-01T08:39:27;14.20;;;11.93;;
17504;SDS011;8870;50.950;11.762;2023-03-01T08:45:02;11.93;;;10.35;;
17504;SDS011;8870;50.950;11.762;2023-03-01T08:50:27;13.13;;;10.05;;
17504;SDS011;8870;50.950;11.762;2023-03-01T08:55:59;11.45;;;10.27;;
17504;SDS011;8870;50.950;11.762;2023-03-01T09:01:20;10.85;;;9.75;;
17504;SDS011;8870;50.950;11.762;2023-03-01T09:06:51;9.98;;;8.90;;
17504;SDS011;8870;50.950;11.762;2023-03-01T09:12:09;10.95;;;9.80;;
17504;SDS011;8870;50.950;11.762;2023-03-01T09:17:44;10.80;;;9.43;;
17504;SDS011;8870;50.950;11.762;2023-03-01T09:23:02;12.05;;;9.60;;
17504;SDS011;8870;50.950;11.762;2023-03-01T09:28:33;11.07;;;9.70;;
17504;SDS011;8870;50.950;11.762;2023-03-01T09:33:54;10.32;;;9.23;;
17504;SDS011;8870;50.950;11.762;2023-03-01T09:39:25;11.20;;;8.88;;
17504;SDS011;8870;50.950;11.762;2023-03-01T09:44:45;10.20;;;8.50;;
17504;SDS011;8870;50.950;11.762;2023-03-01T09:50:25;10.18;;;8.68;;
17504;SDS011;8870;50.950;11.762;2023-03-01T09:55:46;9.40;;;8.32;;
17504;SDS011;8870;50.950;11.762;2023-03-01T10:01:27;10.00;;;8.90;;
17504;SDS011;8870;50.950;11.762;2023-03-01T10:07:17;9.52;;;7.97;;
17504;SDS011;8870;50.950;11.762;2023-03-01T10:12:43;9.35;;;7.82;;
17504;SDS011;8870;50.950;11.762;2023-03-01T10:18:16;9.00;;;7.75;;
17504;SDS011;8870;50.950;11.762;2023-03-01T10:23:41;8.02;;;6.88;;
17504;SDS011;8870;50.950;11.762;2023-03-01T10:29:12;8.48;;;7.68;;
17504;SDS011;8870;50.950;11.762;2023-03-01T10:34:32;9.52;;;7.93;;
17504;SDS011;8870;50.950;11.762;2023-03-01T10:40:08;8.82;;;7.93;;
17504;SDS011;8870;50.950;11.762;2023-03-01T10:45:32;8.63;;;7.70;;
17504;SDS011;8870;50.950;11.762;2023-03-01T10:51:06;8.43;;;7.47;;
17504;SDS011;8870;50.950;11.762;2023-03-01T10:56:28;8.70;;;7.80;;
17504;SDS011;8870;50.950;11.762;2023-03-01T11:02:04;8.82;;;7.93;;
17504;SDS011;8870;50.950;11.762;2023-03-01T11:07:47;9.98;;;8.23;;
17504;SDS011;8870;50.950;11.762;2023-03-01T11:13:13;11.13;;;8.40;;
17504;SDS011;8870;50.950;11.762;2023-03-01T11:18:47;8.15;;;7.35;;
17504;SDS011;8870;50.950;11.762;2023-03-01T11:24:14;8.25;;;7.40;;
17504;SDS011;8870;50.950;11.762;2023-03-01T11:29:51;8.25;;;7.32;;
17504;SDS011;8870;50.950;11.762;2023-03-01T11:35:14;8.05;;;7.22;;
17504;SDS011;8870;50.950;11.762;2023-03-01T11:40:49;8.52;;;7.63;;
17504;SDS011;8870;50.950;11.762;2023-03-01T11:46:27;8.95;;;7.20;;
17504;SDS011;8870;50.950;11.762;2023-03-01T11:52:23;8.53;;;7.57;;
17504;SDS011;8870;50.950;11.762;2023-03-01T11:57:55;8.15;;;7.35;;
17504;SDS011;8870;50.950;11.762;2023-03-01T12:03:44;8.13;;;7.10;;
17504;SDS011;8870;50.950;11.762;2023-03-01T12:09:37;8.35;;;7.40;;
17504;SDS011;8870;50.950;11.762;2023-03-01T12:15:20;8.00;;;7.20;;
17504;SDS011;8870;50.950;11.762;2023-03-01T12:21:14;8.80;;;7.43;;
17504;SDS011;8870;50.950;11.762;2023-03-01T12:26:42;7.55;;;6.70;;
17504;SDS011;8870;50.950;11.762;2023-03-01T12:32:30;7.68;;;6.93;;
17504;SDS011;8870;50.950;11.762;2023-03-01T12:38:05;8.85;;;7.03;;
17504;SDS011;8870;50.950;11.762;2023-03-01T12:43:50;9.20;;;7.30;;
17504;SDS011;8870;50.950;11.762;2023-03-01T12:49:23;9.52;;;7.50;;
17504;SDS011;8870;50.950;11.762;2023-03-01T12:55:01;11.13;;;6.88;;
17504;SDS011;8870;50.950;11.762;2023-03-01T13:00:26;8.77;;;6.72;;
17504;SDS011;8870;50.950;11.762;2023-03-01T13:06:06;7.32;;;6.20;;
17504;SDS011;8870;50.950;11.762;2023-03-01T13:11:35;7.75;;;6.00;;
17504;SDS011;8870;50.950;11.762;2023-03-01T13:17:28;6.72;;;5.70;;
17504;SDS011;8870;50.950;11.762;2023-03-01T13:23:00;6.85;;;5.55;;
17504;SDS011;8870;50.950;11.762;2023-03-01T13:28:49;6.50;;;5.65;;
17504;SDS011;8870;50.950;11.762;2023-03-01T13:46:01;6.63;;;5.90;;
17504;SDS011;8870;50.950;11.762;2023-03-01T13:51:38;8.98;;;5.43;;
17504;SDS011;8870;50.950;11.762;2023-03-01T13:56:56;5.72;;;5.13;;
17504;SDS011;8870;50.950;11.762;2023-03-01T14:02:32;5.78;;;5.18;;
17504;SDS011;8870;50.950;11.762;2023-03-01T14:08:20;6.43;;;5.60;;
17504;SDS011;8870;50.950;11.762;2023-03-01T14:13:45;8.88;;;5.60;;
17504;SDS011;8870;50.950;11.762;2023-03-01T14:19:28;7.82;;;5.60;;
17504;SDS011;8870;50.950;11.762;2023-03-01T14:24:48;6.25;;;5.22;;
17504;SDS011;8870;50.950;11.762;2023-03-01T14:30:21;6.85;;;5.10;;
17504;SDS011;8870;50.950;11.762;2023-03-01T14:35:51;6.15;;;5.38;;
17504;SDS011;8870;50.950;11.762;2023-03-01T14:41:24;5.72;;;5.13;;
17504;SDS011;8870;50.950;11.762;2023-03-01T14:46:45;8.10;;;5.40;;
17504;SDS011;8870;50.950;11.762;2023-03-01T14:52:21;7.07;;;5.28;;
17504;SDS011;8870;50.950;11.762;2023-03-01T14:57:43;8.23;;;5.33;;
17504;SDS011;8870;50.950;11.762;2023-03-01T15:03:20;11.00;;;5.68;;
17504;SDS011;8870;50.950;11.762;2023-03-01T15:09:01;5.70;;;5.00;;
17504;SDS011;8870;50.950;11.762;2023-03-01T15:14:26;6.68;;;5.05;;
17504;SDS011;8870;50.950;11.762;2023-03-01T15:20:18;6.20;;;5.30;;
17504;SDS011;8870;50.950;11.762;2023-03-01T15:25:43;6.53;;;5.72;;
17504;SDS011;8870;50.950;11.762;2023-03-01T15:31:19;7.63;;;6.40;;
17504;SDS011;8870;50.950;11.762;2023-03-01T15:36:41;7.25;;;6.45;;
17504;SDS011;8870;50.950;11.762;2023-03-01T15:42:36;7.80;;;6.18;;
17504;SDS011;8870;50.950;11.762;2023-03-01T15:47:56;6.03;;;5.10;;
17504;SDS011;8870;50.950;11.762;2023-03-01T15:53:28;5.50;;;4.05;;
17504;SDS011;8870;50.950;11.762;2023-03-01T15:59:03;5.90;;;4.57;;
17504;SDS011;8870;50.950;11.762;2023-03-01T16:04:35;4.80;;;4.30;;
17504;SDS011;8870;50.950;11.762;2023-03-01T16:09:53;6.05;;;5.13;;
17504;SDS011;8870;50.950;11.762;2023-03-01T16:15:28;5.25;;;4.75;;
17504;SDS011;8870;50.950;11.762;2023-03-01T16:20:47;6.00;;;5.40;;
17504;SDS011;8870;50.950;11.762;2023-03-01T16:26:18;7.25;;;5.45;;
17504;SDS011;8870;50.950;11.762;2023-03-01T16:31:39;8.82;;;4.75;;
17504;SDS011;8870;50.950;11.762;2023-03-01T16:37:10;6.15;;;4.97;;
17504;SDS011;8870;50.950;11.762;2023-03-01T16:42:28;6.13;;;4.88;;
17504;SDS011;8870;50.950;11.762;2023-03-01T16:48:06;6.38;;;5.60;;
17504;SDS011;8870;50.950;11.762;2023-03-01T16:53:24;6.05;;;5.45;;
17504;SDS011;8870;50.950;11.762;2023-03-01T16:58:58;7.20;;;5.50;;
17504;SDS011;8870;50.950;11.762;2023-03-01T17:04:26;6.93;;;6.00;;
17504;SDS011;8870;50.950;11.762;2023-03-01T17:09:57;8.75;;;7.18;;
17504;SDS011;8870;50.950;11.762;2023-03-01T17:15:15;7.72;;;6.82;;
17504;SDS011;8870;50.950;11.762;2023-03-01T17:20:51;7.60;;;6.60;;
17504;SDS011;8870;50.950;11.762;2023-03-01T17:26:09;7.30;;;6.60;;
17504;SDS011;8870;50.950;11.762;2023-03-01T17:31:41;9.45;;;6.47;;
17504;SDS011;8870;50.950;11.762;2023-03-01T17:37:02;8.10;;;6.57;;
17504;SDS011;8870;50.950;11.762;2023-03-01T17:42:33;9.10;;;6.70;;
17504;SDS011;8870;50.950;11.762;2023-03-01T17:47:51;8.15;;;6.85;;
17504;SDS011;8870;50.950;11.762;2023-03-01T17:53:27;9.82;;;6.82;;
17504;SDS011;8870;50.950;11.762;2023-03-01T17:58:45;7.05;;;6.22;;
17504;SDS011;8870;50.950;11.762;2023-03-01T18:04:19;10.95;;;6.40;;
17504;SDS011;8870;50.950;11.762;2023-03-01T18:09:54;7.15;;;6.43;;
17504;SDS011;8870;50.950;11.762;2023-03-01T18:15:12;8.45;;;7.13;;
17504;SDS011;8870;50.950;11.762;2023-03-01T18:20:43;7.65;;;6.68;;
17504;SDS011;8870;50.950;11.762;2023-03-01T18:26:06;8.00;;;6.63;;
17504;SDS011;8870;50.950;11.762;2023-03-01T18:31:45;9.73;;;7.78;;
17504;SDS011;8870;50.950;11.762;2023-03-01T18:37:17;8.65;;;7.18;;
17504;SDS011;8870;50.950;11.762;2023-03-01T18:42:38;8.75;;;7.70;;
17504;SDS011;8870;50.950;11.762;2023-03-01T18:48:10;8.13;;;6.90;;
17504;SDS011;8870;50.950;11.762;2023-03-01T18:53:29;8.07;;;7.07;;
17504;SDS011;8870;50.950;11.762;2023-03-01T18:59:03;7.55;;;6.75;;
17504;SDS011;8870;50.950;11.762;2023-03-01T19:04:28;8.40;;;6.53;;
17504;SDS011;8870;50.950;11.762;2023-03-01T19:10:00;7.43;;;6.35;;
17504;SDS011;8870;50.950;11.762;2023-03-01T19:15:21;9.25;;;7.38;;
17504;SDS011;8870;50.950;11.762;2023-03-01T19:20:56;7.55;;;6.75;;
17504;SDS011;8870;50.950;11.762;2023-03-01T19:26:16;9.60;;;6.78;;
17504;SDS011;8870;50.950;11.762;2023-03-01T19:31:51;8.18;;;7.18;;
17504;SDS011;8870;50.950;11.762;2023-03-01T19:37:09;7.22;;;6.50;;
17504;SDS011;8870;50.950;11.762;2023-03-01T19:42:40;7.90;;;6.40;;
17504;SDS011;8870;50.950;11.762;2023-03-01T19:48:01;8.30;;;7.20;;
17504;SDS011;8870;50.950;11.762;2023-03-01T19:53:32;7.97;;;7.03;;
17504;SDS011;8870;50.950;11.762;2023-03-01T19:58:51;9.18;;;6.85;;
17504;SDS011;8870;50.950;11.762;2023-03-01T20:04:27;7.85;;;7.05;;
17504;SDS011;8870;50.950;11.762;2023-03-01T20:09:58;7.55;;;6.65;;
17504;SDS011;8870;50.950;11.762;2023-03-01T20:15:16;8.07;;;6.55;;
17504;SDS011;8870;50.950;11.762;2023-03-01T20:20:51;8.93;;;6.30;;
17504;SDS011;8870;50.950;11.762;2023-03-01T20:26:11;9.40;;;6.15;;
17504;SDS011;8870;50.950;11.762;2023-03-01T20:31:43;8.85;;;6.45;;
17504;SDS011;8870;50.950;11.762;2023-03-01T20:37:04;7.53;;;6.00;;
17504;SDS011;8870;50.950;11.762;2023-03-01T20:42:35;6.85;;;6.07;;
17504;SDS011;8870;50.950;11.762;2023-03-01T20:47:53;7.35;;;6.10;;
17504;SDS011;8870;50.950;11.762;2023-03-01T20:53:27;7.32;;;6.07;;
17504;SDS011;8870;50.950;11.762;2023-03-01T20:58:45;7.68;;;6.57;;
17504;SDS011;8870;50.950;11.762;2023-03-01T21:04:18;8.20;;;6.38;;
17504;SDS011;8870;50.950;11.762;2023-03-01T21:09:52;7.55;;;6.43;;
17504;SDS011;8870;50.950;11.762;2023-03-01T21:15:10;9.60;;;6.63;;
17504;SDS011;8870;50.950;11.762;2023-03-01T21:20:43;9.30;;;6.00;;
17504;SDS011;8870;50.950;11.762;2023-03-01T21:26:05;8.07;;;6.50;;
17504;SDS011;8870;50.950;11.762;2023-03-01T21:31:37;7.03;;;5.90;;
17504;SDS011;8870;50.950;11.762;2023-03-01T21:36:55;7.85;;;6.10;;
17504;SDS011;8870;50.950;11.762;2023-03-01T21:42:29;7.10;;;5.90;;
17504;SDS011;8870;50.950;11.762;2023-03-01T21:47:48;7.15;;;5.82;;
17504;SDS011;8870;50.950;11.762;2023-03-01T21:53:19;7.97;;;5.63;;
17504;SDS011;8870;50.950;11.762;2023-03-01T21:58:40;7.03;;;5.90;;
17504;SDS011;8870;50.950;11.762;2023-03-01T22:04:11;7.15;;;5.63;;
17504;SDS011;8870;50.950;11.762;2023-03-01T22:09:43;7.03;;;5.28;;
17504;SDS011;8870;50.950;11.762;2023-03-01T22:15:05;6.50;;;5.40;;
17504;SDS011;8870;50.950;11.762;2023-03-01T22:20:36;6.88;;;5.40;;
17504;SDS011;8870;50.950;11.762;2023-03-01T22:25:55;8.05;;;5.80;;
17504;SDS011;8870;50.950;11.762;2023-03-01T22:31:29;7.50;;;5.80;;
17504;SDS011;8870;50.950;11.762;2023-03-01T22:36:47;6.85;;;5.97;;
17504;SDS011;8870;50.950;11.762;2023-03-01T22:42:19;8.18;;;6.35;;
17504;SDS011;8870;50.950;11.762;2023-03-01T22:47:40;7.65;;;6.10;;
17504;SDS011;8870;50.950;11.762;2023-03-01T22:53:11;7.93;;;6.22;;
17504;SDS011;8870;50.950;11.762;2023-03-01T22:58:30;7.80;;;6.05;;
17504;SDS011;8870;50.950;11.762;2023-03-01T23:04:04;9.85;;;6.38;;
17504;SDS011;8870;50.950;11.762;2023-03-01T23:09:35;7.95;;;5.65;;
17504;SDS011;8870;50.950;11.762;2023-03-01T23:14:53;6.32;;;5.18;;
17504;SDS011;8870;50.950;11.762;2023-03-01T23:20:27;6.00;;;5.22;;
17504;SDS011;8870;50.950;11.762;2023-03-01T23:25:52;6.95;;;5.45;;
17504;SDS011;8870;50.950;11.762;2023-03-01T23:31:24;7.30;;;5.60;;
17504;SDS011;8870;50.950;11.762;2023-03-01T23:36:46;8.85;;;5.65;;
17504;SDS011;8870;50.950;11.762;2023-03-01T23:42:18;6.47;;;5.40;;
17504;SDS011;8870;50.950;11.762;2023-03-01T23:47:37;6.00;;;5.25;;
17504;SDS011;8870;50.950;11.762;2023-03-01T23:53:11;10.00;;;6.18;;
17504;SDS011;8870;50.950;11.762;2023-03-01T23:58:31;8.45;;;5.88;;
